createdAt,value
2023-04-01T00:00:35.889Z,93406.00
2023-04-01T00:01:35.904Z,93405.00
2023-04-01T00:02:36.009Z,93408.00
2023-04-01T00:03:36.075Z,93412.00
2023-04-01T00:04:36.219Z,93408.00
2023-04-01T00:05:36.094Z,93408.00
2023-04-01T00:06:36.121Z,93410.00
2023-04-01T00:07:36.169Z,93410.00
2023-04-01T00:08:36.175Z,93408.00
2023-04-01T00:09:36.213Z,93406.00
2023-04-01T00:10:36.248Z,93410.00
2023-04-01T00:11:36.331Z,93410.00
2023-04-01T00:12:36.393Z,93410.00
2023-04-01T00:13:36.407Z,93412.00
2023-04-01T00:14:36.467Z,93412.00
2023-04-01T00:15:36.509Z,93410.00
2023-04-01T00:16:36.579Z,93408.00
2023-04-01T00:17:36.623Z,93406.00
2023-04-01T00:18:36.624Z,93405.00
2023-04-01T00:19:36.652Z,93405.00
2023-04-01T00:20:36.684Z,93410.00
2023-04-01T00:21:36.789Z,93406.00
2023-04-01T00:22:36.792Z,93405.00
2023-04-01T00:23:36.822Z,93403.00
2023-04-01T00:24:36.861Z,93403.00
2023-04-01T00:25:36.895Z,93406.00
2023-04-01T00:26:36.964Z,93406.00
2023-04-01T00:27:36.993Z,93403.00
2023-04-01T00:28:37.075Z,93401.00
2023-04-01T00:29:37.084Z,93403.00
2023-04-01T00:30:37.108Z,93399.00
2023-04-01T00:31:37.206Z,93405.00
2023-04-01T00:32:37.221Z,93403.00
2023-04-01T00:33:37.201Z,93399.00
2023-04-01T00:34:37.232Z,93401.00
2023-04-01T00:35:37.251Z,93399.00
2023-04-01T00:36:37.329Z,93399.00
2023-04-01T00:37:37.299Z,93397.00
2023-04-01T00:38:37.334Z,93399.00
2023-04-01T00:39:37.376Z,93397.00
2023-04-01T00:40:37.407Z,93397.00
2023-04-01T00:41:37.455Z,93401.00
2023-04-01T00:42:37.518Z,93401.00
2023-04-01T00:43:37.556Z,93399.00
2023-04-01T00:44:37.617Z,93395.00
2023-04-01T00:45:37.703Z,93391.00
2023-04-01T00:46:37.749Z,93389.00
2023-04-01T00:47:37.785Z,93391.00
2023-04-01T00:48:37.780Z,93389.00
2023-04-01T00:49:37.837Z,93391.00
2023-04-01T00:50:37.851Z,93391.00
2023-04-01T00:51:37.902Z,93385.00
2023-04-01T00:52:37.964Z,93385.00
2023-04-01T00:53:38.002Z,93389.00
2023-04-01T00:54:38.047Z,93389.00
2023-04-01T00:55:38.094Z,93391.00
2023-04-01T00:56:38.227Z,93389.00
2023-04-01T00:57:38.202Z,93389.00
2023-04-01T00:58:38.256Z,93389.00
2023-04-01T00:59:38.336Z,93385.00
2023-04-01T01:00:38.421Z,93385.00
2023-04-01T01:01:38.424Z,93391.00
2023-04-01T01:02:38.586Z,93395.00
2023-04-01T01:03:38.501Z,93393.00
2023-04-01T01:04:38.529Z,93395.00
2023-04-01T01:05:48.508Z,93395.00
2023-04-01T01:06:39.603Z,93393.00
2023-04-01T01:07:38.558Z,93391.00
2023-04-01T01:08:38.557Z,93387.00
2023-04-01T01:09:38.549Z,93385.00
2023-04-01T01:10:38.604Z,93383.00
2023-04-01T01:11:43.511Z,93381.00
2023-04-01T01:12:39.551Z,93383.00
2023-04-01T01:13:38.563Z,93381.00
2023-04-01T01:14:38.541Z,93379.00
2023-04-01T01:15:38.501Z,93375.00
2023-04-01T01:16:38.527Z,93377.00
2023-04-01T01:17:38.503Z,93379.00
2023-04-01T01:18:38.513Z,93379.00
2023-04-01T01:19:38.483Z,93379.00
2023-04-01T01:20:38.475Z,93379.00
2023-04-01T01:21:38.483Z,93375.00
2023-04-01T01:22:38.462Z,93373.00
2023-04-01T01:23:38.516Z,93369.00
2023-04-01T01:24:38.547Z,93375.00
2023-04-01T01:25:38.568Z,93375.00
2023-04-01T01:26:38.644Z,93375.00
2023-04-01T01:27:38.705Z,93371.00
2023-04-01T01:28:38.734Z,93373.00
2023-04-01T01:29:38.806Z,93371.00
2023-04-01T01:30:38.893Z,93369.00
2023-04-01T01:31:38.908Z,93373.00
2023-04-01T01:32:38.953Z,93371.00
2023-04-01T01:33:38.962Z,93365.00
2023-04-01T01:34:39.027Z,93363.00
2023-04-01T01:35:39.093Z,93361.00
2023-04-01T01:36:39.134Z,93365.00
2023-04-01T01:37:39.175Z,93363.00
2023-04-01T01:38:39.165Z,93359.00
2023-04-01T01:39:39.200Z,93352.00
2023-04-01T01:40:39.226Z,93352.00
2023-04-01T01:41:39.286Z,93359.00
2023-04-01T01:42:39.336Z,93361.00
2023-04-01T01:43:39.420Z,93359.00
2023-04-01T01:44:39.466Z,93361.00
2023-04-01T01:45:39.477Z,93363.00
2023-04-01T01:46:39.544Z,93365.00
2023-04-01T01:47:39.584Z,93369.00
2023-04-01T01:48:39.611Z,93369.00
2023-04-01T01:49:39.660Z,93365.00
2023-04-01T01:50:39.726Z,93367.00
2023-04-01T01:51:39.760Z,93363.00
2023-04-01T01:52:39.803Z,93359.00
2023-04-01T01:53:39.866Z,93361.00
2023-04-01T01:54:39.909Z,93359.00
2023-04-01T01:55:39.964Z,93352.00
2023-04-01T01:56:40.017Z,93352.00
2023-04-01T01:57:40.055Z,93352.00
2023-04-01T01:58:40.084Z,93350.00
2023-04-01T01:59:40.156Z,93348.00
2023-04-01T02:00:40.179Z,93346.00
2023-04-01T02:01:40.266Z,93346.00
2023-04-01T02:02:40.339Z,93348.00
2023-04-01T02:03:40.372Z,93352.00
2023-04-01T02:04:40.577Z,93359.00
2023-04-01T02:05:40.534Z,93359.00
2023-04-01T02:06:40.556Z,93363.00
2023-04-01T02:07:40.592Z,93363.00
2023-04-01T02:08:40.648Z,93365.00
2023-04-01T02:09:40.691Z,93367.00
2023-04-01T02:10:40.774Z,93367.00
2023-04-01T02:11:40.786Z,93371.00
2023-04-01T02:12:40.799Z,93369.00
2023-04-01T02:13:40.840Z,93369.00
2023-04-01T02:14:40.873Z,93369.00
2023-04-01T02:15:40.933Z,93371.00
2023-04-01T02:16:40.941Z,93371.00
2023-04-01T02:17:41.013Z,93375.00
2023-04-01T02:18:40.992Z,93377.00
2023-04-01T02:19:41.038Z,93379.00
2023-04-01T02:20:41.072Z,93381.00
2023-04-01T02:21:41.131Z,93383.00
2023-04-01T02:22:41.165Z,93381.00
2023-04-01T02:23:41.214Z,93381.00
2023-04-01T02:24:41.220Z,93383.00
2023-04-01T02:25:41.279Z,93383.00
2023-04-01T02:26:41.383Z,93383.00
2023-04-01T02:27:41.366Z,93387.00
2023-04-01T02:28:41.419Z,93387.00
2023-04-01T02:29:41.470Z,93383.00
2023-04-01T02:30:41.525Z,93381.00
2023-04-01T02:31:41.593Z,93381.00
2023-04-01T02:32:41.623Z,93385.00
2023-04-01T02:33:41.608Z,93389.00
2023-04-01T02:34:41.619Z,93381.00
2023-04-01T02:35:41.680Z,93387.00
2023-04-01T02:36:41.730Z,93383.00
2023-04-01T02:37:41.737Z,93391.00
2023-04-01T02:38:41.809Z,93389.00
2023-04-01T02:39:41.841Z,93395.00
2023-04-01T02:40:41.880Z,93387.00
2023-04-01T02:41:41.928Z,93389.00
2023-04-01T02:42:41.977Z,93385.00
2023-04-01T02:43:42.025Z,93387.00
2023-04-01T02:44:42.088Z,93387.00
2023-04-01T02:45:42.145Z,93389.00
2023-04-01T02:46:42.268Z,93387.00
2023-04-01T02:47:42.330Z,93385.00
2023-04-01T02:48:42.284Z,93389.00
2023-04-01T02:49:42.360Z,93389.00
2023-04-01T02:50:42.379Z,93389.00
2023-04-01T02:51:42.433Z,93391.00
2023-04-01T02:52:42.514Z,93389.00
2023-04-01T02:53:42.546Z,93389.00
2023-04-01T02:54:42.581Z,93391.00
2023-04-01T02:55:42.642Z,93395.00
2023-04-01T02:56:42.692Z,93395.00
2023-04-01T02:57:42.742Z,93395.00
2023-04-01T02:58:42.804Z,93397.00
2023-04-01T02:59:42.854Z,93401.00
2023-04-01T03:00:42.973Z,93406.00
2023-04-01T03:01:42.966Z,93408.00
2023-04-01T03:02:43.097Z,93410.00
2023-04-01T03:03:43.078Z,93408.00
2023-04-01T03:04:43.141Z,93408.00
2023-04-01T03:05:43.188Z,93410.00
2023-04-01T03:06:43.240Z,93412.00
2023-04-01T03:07:43.251Z,93412.00
2023-04-01T03:08:43.291Z,93412.00
2023-04-01T03:09:43.351Z,93412.00
2023-04-01T03:10:43.400Z,93414.00
2023-04-01T03:11:43.465Z,93412.00
2023-04-01T03:12:43.489Z,93412.00
2023-04-01T03:13:43.548Z,93412.00
2023-04-01T03:14:43.584Z,93414.00
2023-04-01T03:15:43.652Z,93412.00
2023-04-01T03:16:43.699Z,93412.00
2023-04-01T03:17:43.795Z,93414.00
2023-04-01T03:18:43.771Z,93412.00
2023-04-01T03:19:43.831Z,93412.00
2023-04-01T03:20:43.877Z,93412.00
2023-04-01T03:21:43.951Z,93408.00
2023-04-01T03:22:43.939Z,93408.00
2023-04-01T03:23:43.946Z,93408.00
2023-04-01T03:24:44.007Z,93405.00
2023-04-01T03:25:44.065Z,93406.00
2023-04-01T03:26:44.127Z,93406.00
2023-04-01T03:27:44.184Z,93408.00
2023-04-01T03:28:44.226Z,93406.00
2023-04-01T03:29:44.767Z,93410.00
2023-04-01T03:30:44.355Z,93410.00
2023-04-01T03:31:44.361Z,93412.00
2023-04-01T03:32:44.439Z,93410.00
2023-04-01T03:33:44.445Z,93408.00
2023-04-01T03:34:44.485Z,93408.00
2023-04-01T03:35:44.508Z,93406.00
2023-04-01T03:36:44.588Z,93408.00
2023-04-01T03:37:44.575Z,93408.00
2023-04-01T03:38:44.599Z,93410.00
2023-04-01T03:39:44.838Z,93410.00
2023-04-01T03:40:44.715Z,93416.00
2023-04-01T03:41:44.774Z,93418.00
2023-04-01T03:42:44.923Z,93418.00
2023-04-01T03:43:44.876Z,93422.00
2023-04-01T03:44:44.875Z,93426.00
2023-04-01T03:45:44.876Z,93428.00
2023-04-01T03:46:45.013Z,93428.00
2023-04-01T03:47:44.973Z,93426.00
2023-04-01T03:48:44.897Z,93428.00
2023-04-01T03:49:44.941Z,93428.00
2023-04-01T03:50:44.988Z,93428.00
2023-04-01T03:51:45.040Z,93430.00
2023-04-01T03:52:45.084Z,93434.00
2023-04-01T03:53:45.145Z,93436.00
2023-04-01T03:54:45.187Z,93436.00
2023-04-01T03:55:45.234Z,93438.00
2023-04-01T03:56:45.428Z,93438.00
2023-04-01T03:57:45.348Z,93440.00
2023-04-01T03:58:45.405Z,93440.00
2023-04-01T03:59:45.454Z,93440.00
2023-04-01T04:00:45.516Z,93440.00
2023-04-01T04:01:45.578Z,93440.00
2023-04-01T04:02:45.679Z,93440.00
2023-04-01T04:03:45.777Z,93440.00
2023-04-01T04:04:45.798Z,93438.00
2023-04-01T04:05:45.782Z,93440.00
2023-04-01T04:06:45.823Z,93440.00
2023-04-01T04:07:45.887Z,93442.00
2023-04-01T04:08:45.922Z,93442.00
2023-04-01T04:09:45.982Z,93442.00
2023-04-01T04:10:46.007Z,93442.00
2023-04-01T04:11:46.079Z,93442.00
2023-04-01T04:12:46.076Z,93442.00
2023-04-01T04:13:46.127Z,93446.00
2023-04-01T04:14:46.147Z,93448.00
2023-04-01T04:15:46.210Z,93448.00
2023-04-01T04:16:46.268Z,93448.00
2023-04-01T04:17:46.356Z,93448.00
2023-04-01T04:18:46.373Z,93448.00
2023-04-01T04:19:46.458Z,93450.00
2023-04-01T04:20:46.513Z,93450.00
2023-04-01T04:21:46.556Z,93453.00
2023-04-01T04:22:46.596Z,93453.00
2023-04-01T04:23:46.610Z,93455.00
2023-04-01T04:24:46.657Z,93457.00
2023-04-01T04:25:46.701Z,93457.00
2023-04-01T04:26:46.735Z,93455.00
2023-04-01T04:27:46.724Z,93452.00
2023-04-01T04:28:46.746Z,93452.00
2023-04-01T04:29:46.785Z,93450.00
2023-04-01T04:30:46.785Z,93450.00
2023-04-01T04:31:46.827Z,93453.00
2023-04-01T04:32:46.875Z,93452.00
2023-04-01T04:33:46.888Z,93446.00
2023-04-01T04:34:46.960Z,93446.00
2023-04-01T04:35:46.971Z,93438.00
2023-04-01T04:36:46.967Z,93438.00
2023-04-01T04:37:46.983Z,93440.00
2023-04-01T04:38:46.982Z,93442.00
2023-04-01T04:39:47.015Z,93448.00
2023-04-01T04:40:47.037Z,93450.00
2023-04-01T04:41:47.043Z,93446.00
2023-04-01T04:42:47.056Z,93450.00
2023-04-01T04:43:47.090Z,93452.00
2023-04-01T04:44:47.139Z,93452.00
2023-04-01T04:45:47.148Z,93452.00
2023-04-01T04:46:47.239Z,93455.00
2023-04-01T04:47:47.246Z,93453.00
2023-04-01T04:48:47.300Z,93455.00
2023-04-01T04:49:47.263Z,93457.00
2023-04-01T04:50:47.298Z,93459.00
2023-04-01T04:51:47.314Z,93455.00
2023-04-01T04:52:47.289Z,93457.00
2023-04-01T04:53:47.308Z,93463.00
2023-04-01T04:54:47.362Z,93461.00
2023-04-01T04:55:47.401Z,93461.00
2023-04-01T04:56:47.453Z,93463.00
2023-04-01T04:57:47.478Z,93465.00
2023-04-01T04:58:47.536Z,93467.00
2023-04-01T04:59:47.561Z,93471.00
2023-04-01T05:00:47.603Z,93475.00
2023-04-01T05:01:47.808Z,93475.00
2023-04-01T05:02:47.805Z,93481.00
2023-04-01T05:03:47.878Z,93483.00
2023-04-01T05:04:47.795Z,93489.00
2023-04-01T05:05:47.841Z,93493.00
2023-04-01T05:06:47.889Z,93497.00
2023-04-01T05:07:47.986Z,93495.00
2023-04-01T05:08:47.980Z,93497.00
2023-04-01T05:09:48.044Z,93497.00
2023-04-01T05:10:48.094Z,93495.00
2023-04-01T05:11:48.138Z,93497.00
2023-04-01T05:12:48.174Z,93499.00
2023-04-01T05:13:48.223Z,93499.00
2023-04-01T05:14:48.277Z,93497.00
2023-04-01T05:15:48.347Z,93495.00
2023-04-01T05:16:48.426Z,93495.00
2023-04-01T05:17:48.450Z,93495.00
2023-04-01T05:18:48.609Z,93497.00
2023-04-01T05:19:48.548Z,93495.00
2023-04-01T05:20:48.614Z,93495.00
2023-04-01T05:21:48.670Z,93489.00
2023-04-01T05:22:48.704Z,93487.00
2023-04-01T05:23:48.741Z,93483.00
2023-04-01T05:24:48.849Z,93481.00
2023-04-01T05:25:48.853Z,93481.00
2023-04-01T05:26:48.879Z,93489.00
2023-04-01T05:27:48.940Z,93487.00
2023-04-01T05:28:48.993Z,93491.00
2023-04-01T05:29:49.026Z,93493.00
2023-04-01T05:30:49.089Z,93491.00
2023-04-01T05:31:49.092Z,93493.00
2023-04-01T05:32:49.202Z,93491.00
2023-04-01T05:33:49.177Z,93485.00
2023-04-01T05:34:49.223Z,93487.00
2023-04-01T05:35:49.310Z,93489.00
2023-04-01T05:36:49.305Z,93491.00
2023-04-01T05:37:49.337Z,93493.00
2023-04-01T05:38:49.399Z,93493.00
2023-04-01T05:39:49.434Z,93497.00
2023-04-01T05:40:49.485Z,93497.00
2023-04-01T05:41:49.509Z,93497.00
2023-04-01T05:42:49.565Z,93497.00
2023-04-01T05:43:49.631Z,93497.00
2023-04-01T05:44:49.702Z,93497.00
2023-04-01T05:45:49.725Z,93499.00
2023-04-01T05:46:49.757Z,93502.00
2023-04-01T05:47:49.847Z,93500.00
2023-04-01T05:48:49.876Z,93504.00
2023-04-01T05:49:49.933Z,93504.00
2023-04-01T05:50:50.025Z,93506.00
2023-04-01T05:51:50.142Z,93502.00
2023-04-01T05:52:50.186Z,93506.00
2023-04-01T05:53:50.177Z,93506.00
2023-04-01T05:54:50.232Z,93504.00
2023-04-01T05:55:50.302Z,93508.00
2023-04-01T05:56:50.394Z,93510.00
2023-04-01T05:57:50.416Z,93510.00
2023-04-01T05:58:50.433Z,93508.00
2023-04-01T05:59:50.455Z,93510.00
2023-04-01T06:01:02.291Z,93512.00
2023-04-01T06:01:51.498Z,93510.00
2023-04-01T06:02:50.577Z,93514.00
2023-04-01T06:03:50.655Z,93514.00
2023-04-01T06:04:50.519Z,93518.00
2023-04-01T06:05:50.443Z,93516.00
2023-04-01T06:06:50.418Z,93516.00
2023-04-01T06:07:50.422Z,93516.00
2023-04-01T06:08:50.416Z,93520.00
2023-04-01T06:09:50.400Z,93520.00
2023-04-01T06:10:50.407Z,93524.00
2023-04-01T06:11:50.394Z,93526.00
2023-04-01T06:12:50.385Z,93528.00
2023-04-01T06:13:50.386Z,93530.00
2023-04-01T06:14:50.396Z,93526.00
2023-04-01T06:15:50.423Z,93524.00
2023-04-01T06:16:50.381Z,93522.00
2023-04-01T06:17:50.382Z,93524.00
2023-04-01T06:18:50.356Z,93524.00
2023-04-01T06:19:50.422Z,93526.00
2023-04-01T06:20:50.435Z,93528.00
2023-04-01T06:21:50.499Z,93528.00
2023-04-01T06:22:50.534Z,93524.00
2023-04-01T06:23:50.518Z,93528.00
2023-04-01T06:24:50.553Z,93528.00
2023-04-01T06:25:50.577Z,93528.00
2023-04-01T06:26:50.608Z,93524.00
2023-04-01T06:27:50.641Z,93518.00
2023-04-01T06:28:50.628Z,93516.00
2023-04-01T06:29:50.630Z,93512.00
2023-04-01T06:30:50.638Z,93504.00
2023-04-01T06:31:50.734Z,93499.00
2023-04-01T06:32:50.762Z,93489.00
2023-04-01T06:33:50.714Z,93487.00
2023-04-01T06:34:50.797Z,93487.00
2023-04-01T06:35:50.922Z,93491.00
2023-04-01T06:36:50.832Z,93487.00
2023-04-01T06:37:50.862Z,93487.00
2023-04-01T06:38:50.936Z,93491.00
2023-04-01T06:39:50.954Z,93491.00
2023-04-01T06:40:51.012Z,93493.00
2023-04-01T06:41:51.066Z,93499.00
2023-04-01T06:42:51.109Z,93499.00
2023-04-01T06:43:51.154Z,93495.00
2023-04-01T06:44:51.244Z,93499.00
2023-04-01T06:45:51.299Z,93493.00
2023-04-01T06:46:51.314Z,93495.00
2023-04-01T06:47:51.434Z,93493.00
2023-04-01T06:48:51.408Z,93495.00
2023-04-01T06:49:51.450Z,93497.00
2023-04-01T06:50:51.496Z,93495.00
2023-04-01T06:51:51.546Z,93497.00
2023-04-01T06:52:51.580Z,93491.00
2023-04-01T06:53:51.593Z,93499.00
2023-04-01T06:54:51.661Z,93497.00
2023-04-01T06:55:51.682Z,93500.00
2023-04-01T06:56:51.772Z,93500.00
2023-04-01T06:57:51.795Z,93500.00
2023-04-01T06:58:51.819Z,93500.00
2023-04-01T06:59:51.888Z,93495.00
2023-04-01T07:00:52.129Z,93497.00
2023-04-01T07:01:51.973Z,93495.00
2023-04-01T07:02:52.030Z,93489.00
2023-04-01T07:03:52.004Z,93489.00
2023-04-01T07:04:52.091Z,93491.00
2023-04-01T07:05:52.080Z,93493.00
2023-04-01T07:06:52.242Z,93493.00
2023-04-01T07:07:52.158Z,93495.00
2023-04-01T07:08:52.172Z,93493.00
2023-04-01T07:09:52.203Z,93487.00
2023-04-01T07:10:52.253Z,93489.00
2023-04-01T07:11:52.315Z,93491.00
2023-04-01T07:12:52.368Z,93491.00
2023-04-01T07:13:52.428Z,93491.00
2023-04-01T07:14:52.423Z,93497.00
2023-04-01T07:15:52.427Z,93500.00
2023-04-01T07:16:52.473Z,93497.00
2023-04-01T07:17:52.530Z,93497.00
2023-04-01T07:18:52.510Z,93497.00
2023-04-01T07:19:52.559Z,93493.00
2023-04-01T07:20:52.607Z,93495.00
2023-04-01T07:21:52.614Z,93493.00
2023-04-01T07:22:52.635Z,93499.00
2023-04-01T07:23:52.670Z,93499.00
2023-04-01T07:24:52.671Z,93499.00
2023-04-01T07:25:52.678Z,93499.00
2023-04-01T07:26:52.675Z,93499.00
2023-04-01T07:27:52.713Z,93500.00
2023-04-01T07:28:52.723Z,93502.00
2023-04-01T07:29:52.774Z,93502.00
2023-04-01T07:30:52.816Z,93502.00
2023-04-01T07:31:52.875Z,93502.00
2023-04-01T07:32:52.934Z,93506.00
2023-04-01T07:33:52.951Z,93510.00
2023-04-01T07:34:52.990Z,93508.00
2023-04-01T07:35:53.035Z,93506.00
2023-04-01T07:36:53.067Z,93506.00
2023-04-01T07:37:53.076Z,93506.00
2023-04-01T07:38:53.121Z,93508.00
2023-04-01T07:39:53.084Z,93510.00
2023-04-01T07:40:53.090Z,93512.00
2023-04-01T07:41:53.088Z,93514.00
2023-04-01T07:42:53.070Z,93512.00
2023-04-01T07:43:53.070Z,93510.00
2023-04-01T07:44:53.106Z,93508.00
2023-04-01T07:45:53.167Z,93510.00
2023-04-01T07:46:53.102Z,93510.00
2023-04-01T07:47:53.197Z,93510.00
2023-04-01T07:48:53.220Z,93514.00
2023-04-01T07:49:53.267Z,93514.00
2023-04-01T07:50:53.329Z,93512.00
2023-04-01T07:51:53.378Z,93512.00
2023-04-01T07:52:53.413Z,93512.00
2023-04-01T07:53:53.430Z,93510.00
2023-04-01T07:54:53.485Z,93512.00
2023-04-01T07:55:53.515Z,93510.00
2023-04-01T07:56:53.572Z,93518.00
2023-04-01T07:57:53.537Z,93520.00
2023-04-01T07:58:53.613Z,93516.00
2023-04-01T07:59:53.619Z,93512.00
2023-04-01T08:00:53.624Z,93506.00
2023-04-01T08:01:53.658Z,93502.00
2023-04-01T08:02:53.815Z,93504.00
2023-04-01T08:03:53.900Z,93500.00
2023-04-01T08:04:53.762Z,93506.00
2023-04-01T08:05:53.775Z,93506.00
2023-04-01T08:06:53.835Z,93508.00
2023-04-01T08:07:53.844Z,93508.00
2023-04-01T08:08:53.858Z,93508.00
2023-04-01T08:09:53.902Z,93510.00
2023-04-01T08:10:53.917Z,93508.00
2023-04-01T08:11:53.959Z,93510.00
2023-04-01T08:12:53.994Z,93504.00
2023-04-01T08:13:54.044Z,93500.00
2023-04-01T08:14:54.093Z,93495.00
2023-04-01T08:15:54.201Z,93497.00
2023-04-01T08:16:54.653Z,93493.00
2023-04-01T08:17:54.248Z,93491.00
2023-04-01T08:18:54.261Z,93489.00
2023-04-01T08:19:54.276Z,93493.00
2023-04-01T08:20:54.314Z,93493.00
2023-04-01T08:21:54.299Z,93491.00
2023-04-01T08:22:54.368Z,93489.00
2023-04-01T08:23:54.434Z,93487.00
2023-04-01T08:24:54.499Z,93489.00
2023-04-01T08:25:54.541Z,93495.00
2023-04-01T08:26:54.567Z,93495.00
2023-04-01T08:27:54.611Z,93495.00
2023-04-01T08:28:54.688Z,93491.00
2023-04-01T08:29:54.680Z,93489.00
2023-04-01T08:30:54.747Z,93489.00
2023-04-01T08:31:54.759Z,93491.00
2023-04-01T08:32:54.819Z,93489.00
2023-04-01T08:33:54.861Z,93489.00
2023-04-01T08:34:54.858Z,93481.00
2023-04-01T08:35:54.911Z,93487.00
2023-04-01T08:36:54.936Z,93481.00
2023-04-01T08:37:54.902Z,93489.00
2023-04-01T08:38:54.944Z,93491.00
2023-04-01T08:39:54.980Z,93489.00
2023-04-01T08:40:55.029Z,93489.00
2023-04-01T08:41:55.047Z,93487.00
2023-04-01T08:42:55.104Z,93485.00
2023-04-01T08:43:55.147Z,93483.00
2023-04-01T08:44:55.206Z,93487.00
2023-04-01T08:45:55.259Z,93487.00
2023-04-01T08:46:55.229Z,93483.00
2023-04-01T08:47:55.265Z,93481.00
2023-04-01T08:48:55.247Z,93483.00
2023-04-01T08:49:55.240Z,93481.00
2023-04-01T08:50:55.271Z,93481.00
2023-04-01T08:51:55.330Z,93483.00
2023-04-01T08:52:55.399Z,93481.00
2023-04-01T08:53:55.400Z,93481.00
2023-04-01T08:54:55.439Z,93479.00
2023-04-01T08:55:55.485Z,93481.00
2023-04-01T08:56:55.524Z,93479.00
2023-04-01T08:57:56.778Z,93481.00
2023-04-01T08:58:55.541Z,93481.00
2023-04-01T08:59:55.542Z,93471.00
2023-04-01T09:00:55.524Z,93473.00
2023-04-01T09:01:55.593Z,93467.00
2023-04-01T09:02:55.596Z,93465.00
2023-04-01T09:03:55.686Z,93457.00
2023-04-01T09:04:55.611Z,93457.00
2023-04-01T09:05:55.624Z,93459.00
2023-04-01T09:06:55.644Z,93457.00
2023-04-01T09:07:55.669Z,93461.00
2023-04-01T09:08:55.690Z,93461.00
2023-04-01T09:09:55.698Z,93459.00
2023-04-01T09:10:55.726Z,93459.00
2023-04-01T09:11:55.779Z,93463.00
2023-04-01T09:12:55.821Z,93465.00
2023-04-01T09:13:55.853Z,93465.00
2023-04-01T09:14:55.875Z,93465.00
2023-04-01T09:15:55.932Z,93465.00
2023-04-01T09:16:55.882Z,93465.00
2023-04-01T09:17:56.013Z,93463.00
2023-04-01T09:18:55.955Z,93461.00
2023-04-01T09:19:56.024Z,93459.00
2023-04-01T09:20:56.065Z,93455.00
2023-04-01T09:21:56.090Z,93459.00
2023-04-01T09:22:56.092Z,93455.00
2023-04-01T09:23:56.132Z,93452.00
2023-04-01T09:24:56.186Z,93452.00
2023-04-01T09:25:56.187Z,93453.00
2023-04-01T09:26:56.284Z,93453.00
2023-04-01T09:27:56.251Z,93450.00
2023-04-01T09:28:56.298Z,93453.00
2023-04-01T09:29:56.330Z,93452.00
2023-04-01T09:30:56.433Z,93448.00
2023-04-01T09:31:56.442Z,93444.00
2023-04-01T09:32:56.515Z,93444.00
2023-04-01T09:33:56.476Z,93444.00
2023-04-01T09:34:56.553Z,93442.00
2023-04-01T09:35:56.622Z,93438.00
2023-04-01T09:36:56.649Z,93438.00
2023-04-01T09:37:56.697Z,93436.00
2023-04-01T09:38:56.761Z,93434.00
2023-04-01T09:39:56.821Z,93434.00
2023-04-01T09:40:56.854Z,93434.00
2023-04-01T09:41:56.876Z,93428.00
2023-04-01T09:42:56.906Z,93428.00
2023-04-01T09:43:56.931Z,93424.00
2023-04-01T09:44:56.984Z,93424.00
2023-04-01T09:45:56.990Z,93416.00
2023-04-01T09:46:56.981Z,93416.00
2023-04-01T09:47:57.094Z,93418.00
2023-04-01T09:48:57.020Z,93416.00
2023-04-01T09:49:57.061Z,93414.00
2023-04-01T09:50:57.097Z,93408.00
2023-04-01T09:51:57.153Z,93410.00
2023-04-01T09:52:57.232Z,93410.00
2023-04-01T09:53:57.270Z,93405.00
2023-04-01T09:54:57.320Z,93408.00
2023-04-01T09:55:57.376Z,93406.00
2023-04-01T09:56:57.449Z,93408.00
2023-04-01T09:57:57.431Z,93406.00
2023-04-01T09:58:57.461Z,93405.00
2023-04-01T09:59:57.504Z,93406.00
2023-04-01T10:00:57.528Z,93403.00
2023-04-01T10:01:57.674Z,93406.00
2023-04-01T10:02:57.682Z,93399.00
2023-04-01T10:03:57.706Z,93399.00
2023-04-01T10:04:57.761Z,93397.00
2023-04-01T10:05:57.887Z,93395.00
2023-04-01T10:06:57.830Z,93391.00
2023-04-01T10:07:57.873Z,93389.00
2023-04-01T10:08:57.894Z,93389.00
2023-04-01T10:09:57.918Z,93387.00
2023-04-01T10:10:57.934Z,93391.00
2023-04-01T10:11:57.998Z,93391.00
2023-04-01T10:12:58.053Z,93391.00
2023-04-01T10:13:58.069Z,93385.00
2023-04-01T10:14:58.117Z,93391.00
2023-04-01T10:15:58.168Z,93389.00
2023-04-01T10:16:58.192Z,93387.00
2023-04-01T10:17:58.283Z,93385.00
2023-04-01T10:18:58.282Z,93385.00
2023-04-01T10:19:58.340Z,93381.00
2023-04-01T10:20:58.399Z,93381.00
2023-04-01T10:21:58.500Z,93379.00
2023-04-01T10:22:58.530Z,93379.00
2023-04-01T10:23:58.538Z,93377.00
2023-04-01T10:24:58.580Z,93375.00
2023-04-01T10:25:58.624Z,93377.00
2023-04-01T10:26:58.685Z,93381.00
2023-04-01T10:27:58.739Z,93379.00
2023-04-01T10:28:58.769Z,93375.00
2023-04-01T10:29:58.789Z,93375.00
2023-04-01T10:30:58.820Z,93369.00
2023-04-01T10:31:58.927Z,93371.00
2023-04-01T10:32:58.926Z,93369.00
2023-04-01T10:33:58.925Z,93367.00
2023-04-01T10:34:58.945Z,93371.00
2023-04-01T10:35:59.012Z,93365.00
2023-04-01T10:36:59.051Z,93367.00
2023-04-01T10:37:59.081Z,93365.00
2023-04-01T10:38:59.124Z,93361.00
2023-04-01T10:39:59.171Z,93359.00
2023-04-01T10:40:59.214Z,93359.00
2023-04-01T10:41:59.248Z,93352.00
2023-04-01T10:42:59.294Z,93359.00
2023-04-01T10:43:59.340Z,93350.00
2023-04-01T10:44:59.365Z,93350.00
2023-04-01T10:45:59.483Z,93350.00
2023-04-01T10:46:59.475Z,93344.00
2023-04-01T10:47:59.514Z,93342.00
2023-04-01T10:48:59.532Z,93340.00
2023-04-01T10:49:59.548Z,93338.00
2023-04-01T10:50:59.641Z,93336.00
2023-04-01T10:51:59.665Z,93338.00
2023-04-01T10:52:59.698Z,93332.00
2023-04-01T10:53:59.764Z,93334.00
2023-04-01T10:54:59.805Z,93330.00
2023-04-01T10:55:59.853Z,93332.00
2023-04-01T10:56:59.930Z,93330.00
2023-04-01T10:57:59.929Z,93330.00
2023-04-01T10:58:59.935Z,93328.00
2023-04-01T10:59:59.966Z,93326.00
2023-04-01T11:01:00.008Z,93326.00
2023-04-01T11:02:09.943Z,93326.00
2023-04-01T11:03:01.065Z,93324.00
2023-04-01T11:04:00.009Z,93324.00
2023-04-01T11:05:00.020Z,93324.00
2023-04-01T11:05:59.984Z,93318.00
2023-04-01T11:06:59.963Z,93318.00
2023-04-01T11:08:05.931Z,93316.00
2023-04-01T11:09:00.967Z,93318.00
2023-04-01T11:09:59.954Z,93316.00
2023-04-01T11:10:59.958Z,93316.00
2023-04-01T11:11:59.941Z,93314.00
2023-04-01T11:12:59.932Z,93314.00
2023-04-01T11:13:59.961Z,93316.00
2023-04-01T11:14:59.922Z,93314.00
2023-04-01T11:15:59.944Z,93313.00
2023-04-01T11:16:59.912Z,93314.00
2023-04-01T11:17:59.945Z,93313.00
2023-04-01T11:18:59.881Z,93316.00
2023-04-01T11:19:59.889Z,93316.00
2023-04-01T11:20:59.874Z,93314.00
2023-04-01T11:21:59.869Z,93314.00
2023-04-01T11:22:59.891Z,93311.00
2023-04-01T11:24:05.203Z,93314.00
2023-04-01T11:25:00.937Z,93316.00
2023-04-01T11:25:59.921Z,93313.00
2023-04-01T11:26:59.930Z,93313.00
2023-04-01T11:27:59.915Z,93309.00
2023-04-01T11:28:59.899Z,93305.00
2023-04-01T11:30:00.769Z,93309.00
2023-04-01T11:30:59.987Z,93309.00
2023-04-01T11:31:59.887Z,93309.00
2023-04-01T11:32:59.907Z,93311.00
2023-04-01T11:33:59.849Z,93307.00
2023-04-01T11:34:59.840Z,93311.00
2023-04-01T11:35:59.844Z,93314.00
2023-04-01T11:36:59.893Z,93316.00
2023-04-01T11:37:59.850Z,93309.00
2023-04-01T11:38:59.843Z,93309.00
2023-04-01T11:39:59.882Z,93309.00
2023-04-01T11:40:59.921Z,93309.00
2023-04-01T11:41:59.946Z,93309.00
2023-04-01T11:42:59.987Z,93307.00
2023-04-01T11:44:00.103Z,93307.00
2023-04-01T11:45:00.110Z,93305.00